Time;durP1;ratioP1;P1;durP2;ratioP2;P2;SDS_P1;SDS_P2;PMS_P1;PMS_P2;Temp;Humidity;BMP_temperature;BMP_pressure;BME280_temperature;BME280_humidity;BME280_pressure;Samples;Min_cycle;Max_cycle;Signal;HPM_P1;HPM_P2
2022/03/01 00:00:06;;;;;;;0.20;0.10;;;;;;;-0.55;94.66;101601.38;4994061;28;20473;-50
2022/03/01 00:02:33;;;;;;;0.20;0.17;;;;;;;-0.33;94.89;101605.66;4993604;28;21041;-50
2022/03/01 00:04:59;;;;;;;3.17;3.00;;;;;;;-0.45;94.88;101611.31;4993759;28;20943;-49
2022/03/01 00:07:26;;;;;;;0.20;0.20;;;;;;;-0.64;94.04;101608.88;4993557;28;20460;-50
2022/03/01 00:09:53;;;;;;;0.20;0.10;;;;;;;-0.47;94.76;101612.09;4993852;28;20525;-50
2022/03/01 00:12:19;;;;;;;0.20;0.20;;;;;;;-0.63;95.44;101608.94;4993624;28;20871;-50
2022/03/01 00:14:46;;;;;;;0.33;0.33;;;;;;;-0.53;94.45;101609.28;4993571;28;20496;-50
2022/03/01 00:17:13;;;;;;;0.27;0.17;;;;;;;-0.81;94.89;101610.84;4993545;28;21012;-50
2022/03/01 00:19:39;;;;;;;0.20;0.10;;;;;;;-0.81;95.06;101615.19;4993541;28;20469;-50
2022/03/01 00:22:06;;;;;;;0.20;0.10;;;;;;;-0.80;95.33;101612.63;4993373;28;20485;-50
2022/03/01 00:24:32;;;;;;;0.20;0.10;;;;;;;-0.86;96.25;101614.09;4993494;28;20494;-50
2022/03/01 00:26:59;;;;;;;0.30;0.20;;;;;;;-0.71;96.66;101620.78;4993607;28;20579;-50
2022/03/01 00:29:25;;;;;;;0.63;0.63;;;;;;;-0.84;94.74;101622.84;4993243;28;20921;-50
2022/03/01 00:31:52;;;;;;;0.20;0.10;;;;;;;-0.70;95.54;101630.38;4993351;28;20732;-50
2022/03/01 00:34:19;;;;;;;0.20;0.10;;;;;;;-0.98;95.50;101618.00;4993298;28;20464;-50
2022/03/01 00:36:46;;;;;;;15.83;3.33;;;;;;;-0.92;95.90;101628.69;4993155;28;20450;-50
2022/03/01 00:39:12;;;;;;;0.20;0.10;;;;;;;-1.04;96.09;101633.41;4993449;28;20470;-49
2022/03/01 00:41:39;;;;;;;1.17;1.17;;;;;;;-1.15;96.88;101639.03;4993299;28;20449;-49
2022/03/01 00:44:06;;;;;;;0.20;0.20;;;;;;;-0.99;96.40;101651.84;4993277;28;20449;-50
2022/03/01 00:46:33;;;;;;;0.20;0.20;;;;;;;-1.13;96.86;101646.06;4993097;28;20454;-50
2022/03/01 00:49:00;;;;;;;0.20;0.10;;;;;;;-1.23;97.06;101652.66;4992876;28;20497;-50
2022/03/01 00:51:28;;;;;;;0.20;0.10;;;;;;;-1.22;97.39;101653.56;4993012;28;20930;-50
2022/03/01 00:53:54;;;;;;;0.20;0.20;;;;;;;-1.24;96.43;101656.06;4993257;28;20512;-50
2022/03/01 00:56:22;;;;;;;0.20;0.10;;;;;;;-1.28;97.41;101650.69;4993008;28;20889;-50
2022/03/01 00:58:48;;;;;;;0.20;0.10;;;;;;;-1.17;97.92;101649.41;4993047;28;20511;-50
2022/03/01 01:01:15;;;;;;;0.20;0.10;;;;;;;-1.09;98.41;101639.28;4992957;28;20511;-50
2022/03/01 01:03:42;;;;;;;0.20;0.10;;;;;;;-1.27;97.56;101645.53;4992813;28;20500;-50
2022/03/01 01:06:09;;;;;;;0.20;0.10;;;;;;;-1.14;97.33;101644.31;4993161;28;20457;-50
2022/03/01 01:08:35;;;;;;;0.20;0.10;;;;;;;-1.28;96.98;101641.13;4993033;28;20464;-50
2022/03/01 01:11:02;;;;;;;1.07;0.97;;;;;;;-1.23;98.37;101646.56;4992964;28;20453;-50
2022/03/01 01:13:30;;;;;;;0.20;0.10;;;;;;;-1.32;99.34;101643.56;4992785;28;20449;-50
2022/03/01 01:15:57;;;;;;;0.20;0.20;;;;;;;-1.25;98.56;101641.25;4992797;28;20508;-49
2022/03/01 01:18:24;;;;;;;0.20;0.20;;;;;;;-1.29;98.87;101641.06;4992951;28;20464;-50
2022/03/01 01:20:50;;;;;;;0.20;0.10;;;;;;;-1.07;98.32;101635.91;4992586;28;21044;-50
2022/03/01 01:23:17;;;;;;;0.20;0.10;;;;;;;-0.96;98.76;101633.69;4992952;28;20453;-50
2022/03/01 01:25:44;;;;;;;0.20;0.10;;;;;;;-1.05;97.38;101638.56;4992838;28;20458;-50
2022/03/01 01:28:13;;;;;;;0.20;0.10;;;;;;;-0.91;97.13;101637.41;4992702;28;20453;-50
2022/03/01 01:30:39;;;;;;;0.20;0.10;;;;;;;-0.99;98.46;101636.19;4992487;28;20556;-50
2022/03/01 01:33:06;;;;;;;0.20;0.10;;;;;;;-0.94;97.68;101632.06;4993116;28;20508;-50
2022/03/01 01:35:34;;;;;;;0.20;0.10;;;;;;;-0.89;96.96;101630.53;4992821;28;20504;-50
2022/03/01 01:38:01;;;;;;;0.20;0.10;;;;;;;-0.94;96.61;101635.56;4992769;28;20461;-50
2022/03/01 01:40:30;;;;;;;0.20;0.10;;;;;;;-1.26;97.94;101642.09;4992602;28;21037;-50
2022/03/01 01:42:58;;;;;;;0.20;0.10;;;;;;;-1.23;98.11;101634.41;4992538;28;20500;-50
2022/03/01 01:45:26;;;;;;;0.20;0.20;;;;;;;-1.26;97.53;101638.59;4992509;28;20445;-50
2022/03/01 01:47:54;;;;;;;0.87;0.87;;;;;;;-1.46;97.78;101635.16;4992636;28;20461;-50
2022/03/01 01:50:22;;;;;;;0.20;0.20;;;;;;;-1.54;99.14;101633.94;4992260;28;20498;-50
2022/03/01 01:52:50;;;;;;;1.80;1.80;;;;;;;-1.65;98.93;101638.69;4992434;28;20453;-50
2022/03/01 01:55:19;;;;;;;0.20;0.10;;;;;;;-1.70;99.11;101636.75;4992524;28;20453;-50
2022/03/01 01:57:47;;;;;;;0.20;0.10;;;;;;;-1.46;98.44;101637.78;4992298;28;20462;-50
2022/03/01 02:00:15;;;;;;;1.10;1.10;;;;;;;-1.67;98.47;101642.06;4992367;28;20516;-50
2022/03/01 02:02:43;;;;;;;0.20;0.20;;;;;;;-1.04;98.13;101633.41;4992419;28;20512;-50
2022/03/01 02:05:11;;;;;;;0.20;0.10;;;;;;;-1.07;98.49;101632.41;4992548;28;20488;-52
2022/03/01 02:07:43;;;;;;;1.50;1.40;;;;;;;-1.23;98.57;101626.59;4992779;28;20453;-50
2022/03/01 02:10:09;;;;;;;0.20;0.10;;;;;;;-1.46;97.99;101631.69;4995996;28;20531;-52
2022/03/01 02:12:36;;;;;;;0.20;0.10;;;;;;;-1.30;97.77;101631.47;4995839;28;20453;-50
2022/03/01 02:15:03;;;;;;;0.20;0.10;;;;;;;-1.37;97.82;101637.25;4996130;28;20535;-51
2022/03/01 02:17:30;;;;;;;0.20;0.10;;;;;;;-1.46;98.23;101635.16;4995804;28;20489;-50
2022/03/01 02:19:57;;;;;;;0.20;0.10;;;;;;;-1.55;98.32;101624.34;4995728;28;21064;-50
2022/03/01 02:22:32;;;;;;;0.20;0.10;;;;;;;-1.60;98.50;101625.88;4995697;28;20454;-50
2022/03/01 02:25:00;;;;;;;0.20;0.20;;;;;;;-1.41;97.33;101625.81;4995524;28;20453;-50
2022/03/01 02:27:29;;;;;;;0.20;0.10;;;;;;;-1.66;98.38;101639.53;4996088;28;20460;-50
2022/03/01 02:29:56;;;;;;;0.20;0.10;;;;;;;-1.74;97.81;101633.13;4995627;28;20489;-50
2022/03/01 02:32:22;;;;;;;17.80;1.80;;;;;;;-1.45;97.77;101633.44;4995707;28;20825;-50
2022/03/01 02:34:49;;;;;;;0.20;0.10;;;;;;;-1.82;97.10;101640.59;4995787;28;20484;-50
2022/03/01 02:37:16;;;;;;;0.20;0.10;;;;;;;-1.75;97.53;101635.66;4995508;28;20445;-51
2022/03/01 02:39:42;;;;;;;1.43;1.33;;;;;;;-1.66;97.71;101639.53;4995518;28;20470;-50
2022/03/01 02:42:09;;;;;;;0.20;0.10;;;;;;;-1.86;98.45;101635.19;4995594;28;20476;-50
2022/03/01 02:44:36;;;;;;;0.30;0.30;;;;;;;-1.94;99.79;101629.63;4995403;28;20523;-50
2022/03/01 02:47:03;;;;;;;0.20;0.10;;;;;;;-1.87;100.00;101625.59;4995503;28;20449;-50
2022/03/01 02:49:29;;;;;;;0.20;0.10;;;;;;;-1.85;99.24;101632.66;4995233;28;20528;-50
2022/03/01 02:51:56;;;;;;;2.07;1.90;;;;;;;-1.93;99.27;101626.19;4995180;28;20874;-50
2022/03/01 02:54:23;;;;;;;0.20;0.10;;;;;;;-1.99;99.17;101625.06;4995068;28;20477;-50
2022/03/01 02:56:49;;;;;;;0.20;0.20;;;;;;;-1.97;99.07;101626.03;4995214;28;20504;-50
2022/03/01 02:59:16;;;;;;;0.20;0.20;;;;;;;-1.98;97.99;101625.13;4995109;28;20473;-51
2022/03/01 03:01:42;;;;;;;0.20;0.10;;;;;;;-2.05;98.95;101630.03;4995130;28;20880;-50
2022/03/01 03:04:09;;;;;;;0.20;0.10;;;;;;;-2.19;98.68;101622.50;4994825;28;20453;-50
2022/03/01 03:06:36;;;;;;;0.20;0.10;;;;;;;-2.23;98.16;101624.88;4994808;28;20870;-50
2022/03/01 03:09:03;;;;;;;0.20;0.10;;;;;;;-2.28;98.55;101621.19;4994551;28;20994;-50
2022/03/01 03:11:30;;;;;;;0.20;0.10;;;;;;;-2.32;98.35;101622.78;4994953;28;20510;-50
2022/03/01 03:13:56;;;;;;;0.20;0.10;;;;;;;-2.42;98.18;101625.78;4994723;28;20481;-49
2022/03/01 03:16:23;;;;;;;0.20;0.10;;;;;;;-2.48;98.98;101630.69;4994783;28;20473;-50
2022/03/01 03:18:49;;;;;;;0.20;0.10;;;;;;;-2.57;99.35;101625.97;4994114;28;20966;-49
2022/03/01 03:21:16;;;;;;;0.30;0.20;;;;;;;-2.60;99.78;101625.84;4993969;28;20484;-50
2022/03/01 03:23:44;;;;;;;0.20;0.10;;;;;;;-2.47;100.00;101620.38;4994450;28;20464;-53
2022/03/01 03:26:11;;;;;;;0.30;0.10;;;;;;;-2.40;100.00;101627.63;4994467;28;20461;-53
2022/03/01 03:28:38;;;;;;;0.20;0.10;;;;;;;-2.59;99.56;101630.22;4994502;28;20449;-53
2022/03/01 03:31:04;;;;;;;0.63;0.63;;;;;;;-2.69;99.47;101625.41;4994529;28;20497;-53
2022/03/01 03:33:31;;;;;;;0.20;0.20;;;;;;;-2.71;100.00;101627.94;4994318;28;20504;-52
2022/03/01 03:35:58;;;;;;;0.20;0.10;;;;;;;-2.53;100.00;101630.47;4994374;28;20486;-53
2022/03/01 03:38:25;;;;;;;0.87;0.77;;;;;;;-2.52;100.00;101626.16;4994224;28;20488;-53
2022/03/01 03:40:53;;;;;;;0.20;0.10;;;;;;;-2.56;100.00;101626.84;4994367;28;20536;-53
2022/03/01 03:43:20;;;;;;;0.20;0.10;;;;;;;-2.61;99.53;101623.13;4992992;28;20457;-53
2022/03/01 03:45:47;;;;;;;0.20;0.10;;;;;;;-2.31;99.33;101628.88;4994065;28;20518;-53
2022/03/01 03:48:14;;;;;;;0.20;0.20;;;;;;;-2.18;98.38;101634.69;4993872;28;20461;-53
2022/03/01 03:50:41;;;;;;;0.20;0.20;;;;;;;-2.26;98.84;101633.44;4993774;28;20530;-53
2022/03/01 03:53:07;;;;;;;1.03;1.03;;;;;;;-2.12;99.18;101627.13;4994069;28;20449;-53
2022/03/01 03:55:34;;;;;;;0.20;0.10;;;;;;;-1.82;99.02;101632.78;4993890;28;20955;-53
2022/03/01 03:58:01;;;;;;;0.20;0.10;;;;;;;-1.88;98.84;101631.63;4992751;28;20477;-53
2022/03/01 04:00:27;;;;;;;0.20;0.10;;;;;;;-2.02;98.53;101638.84;4993867;28;20501;-53
2022/03/01 04:02:57;;;;;;;0.20;0.10;;;;;;;-2.11;98.71;101636.72;4994005;28;20524;-53
2022/03/01 04:05:24;;;;;;;0.20;0.10;;;;;;;-2.22;98.25;101630.13;4994250;28;20548;-53
2022/03/01 04:07:51;;;;;;;0.20;0.10;;;;;;;-2.22;98.99;101637.94;4993897;28;20449;-53
2022/03/01 04:10:17;;;;;;;0.20;0.10;;;;;;;-2.20;100.00;101632.81;4993898;28;20496;-53
2022/03/01 04:12:45;;;;;;;0.20;0.10;;;;;;;-2.34;100.00;101637.41;4993589;28;20803;-53
2022/03/01 04:15:12;;;;;;;0.20;0.10;;;;;;;-2.72;98.74;101638.28;4993599;28;20531;-53
2022/03/01 04:17:39;;;;;;;0.20;0.10;;;;;;;-2.72;99.72;101640.88;4981125;28;20457;-53
2022/03/01 04:20:07;;;;;;;0.47;0.47;;;;;;;-2.70;100.00;101645.31;4993410;28;20994;-53
2022/03/01 04:22:34;;;;;;;3.30;2.90;;;;;;;-2.61;100.00;101637.03;4993572;28;20449;-53
2022/03/01 04:25:04;;;;;;;0.20;0.10;;;;;;;-2.61;99.65;101633.53;4993589;28;20453;-53
2022/03/01 04:27:31;;;;;;;0.20;0.10;;;;;;;-2.65;99.09;101631.63;4993469;28;21017;-53
2022/03/01 04:29:58;;;;;;;0.73;0.50;;;;;;;-2.57;100.00;101630.28;4993194;28;20544;-53
2022/03/01 04:32:24;;;;;;;0.20;0.20;;;;;;;-2.82;99.35;101633.44;4993403;28;20524;-53
2022/03/01 04:34:51;;;;;;;0.20;0.10;;;;;;;-2.79;99.37;101639.69;4993164;28;20943;-53
2022/03/01 04:37:18;;;;;;;0.40;0.40;;;;;;;-2.82;99.77;101636.06;4993434;28;20449;-53
2022/03/01 04:39:44;;;;;;;0.20;0.10;;;;;;;-2.83;99.86;101627.34;4993309;28;20899;-53
2022/03/01 04:42:15;;;;;;;0.20;0.10;;;;;;;-2.90;99.60;101622.66;4993804;28;20449;-53
2022/03/01 04:44:43;;;;;;;0.20;0.10;;;;;;;-2.89;99.95;101624.44;4993006;28;20973;-53
2022/03/01 04:47:11;;;;;;;0.30;0.30;;;;;;;-2.78;98.94;101617.16;4993354;28;20461;-53
2022/03/01 04:49:37;;;;;;;0.20;0.10;;;;;;;-2.94;99.59;101617.25;4993475;28;20493;-51
2022/03/01 04:52:04;;;;;;;0.20;0.20;;;;;;;-2.83;98.88;101621.25;4993266;28;20524;-52
2022/03/01 04:54:31;;;;;;;0.20;0.10;;;;;;;-2.81;97.69;101615.31;4992902;28;20491;-52
2022/03/01 04:56:58;;;;;;;0.20;0.10;;;;;;;-2.78;98.48;101624.97;4992906;28;20532;-51
2022/03/01 04:59:24;;;;;;;0.20;0.10;;;;;;;-2.77;97.13;101631.94;4992886;28;20469;-52
2022/03/01 05:01:51;;;;;;;0.47;0.47;;;;;;;-2.95;99.02;101634.56;4993070;28;20449;-52
2022/03/01 05:04:18;;;;;;;1.80;0.80;;;;;;;-3.05;99.49;101634.94;4992986;28;20475;-52
2022/03/01 05:06:45;;;;;;;0.20;0.10;;;;;;;-3.15;99.89;101636.25;4992932;28;20457;-51
2022/03/01 05:09:12;;;;;;;0.20;0.10;;;;;;;-2.97;100.00;101632.72;4992881;28;20477;-51
2022/03/01 05:11:39;;;;;;;0.20;0.10;;;;;;;-3.08;99.82;101635.69;4992733;28;20496;-51
2022/03/01 05:14:06;;;;;;;0.20;0.10;;;;;;;-3.05;99.93;101640.16;4993013;28;20457;-52
2022/03/01 05:16:33;;;;;;;0.20;0.20;;;;;;;-3.00;98.22;101647.38;4993066;28;20469;-51
2022/03/01 05:19:00;;;;;;;0.20;0.10;;;;;;;-3.30;99.78;101638.06;4992841;28;20476;-51
2022/03/01 05:21:29;;;;;;;0.20;0.10;;;;;;;-3.26;100.00;101636.53;4992854;28;20508;-52
2022/03/01 05:23:55;;;;;;;0.20;0.10;;;;;;;-3.15;100.00;101637.91;4992660;28;20446;-52
2022/03/01 05:26:22;;;;;;;0.20;0.10;;;;;;;-3.17;100.00;101631.75;4992639;28;20962;-51
2022/03/01 05:28:49;;;;;;;0.20;0.10;;;;;;;-3.19;100.00;101636.88;4992750;28;20449;-51
2022/03/01 05:31:17;;;;;;;0.20;0.10;;;;;;;-3.08;100.00;101632.22;4992786;28;20504;-52
2022/03/01 05:33:46;;;;;;;0.20;0.10;;;;;;;-2.39;100.00;101629.41;4992787;28;20511;-52
2022/03/01 05:36:15;;;;;;;0.20;0.20;;;;;;;-2.20;98.35;101625.00;4992647;28;20515;-52
2022/03/01 05:38:42;;;;;;;0.20;0.10;;;;;;;-2.84;98.31;101630.78;4992351;28;20977;-52
2022/03/01 05:41:09;;;;;;;0.20;0.10;;;;;;;-2.95;99.32;101628.50;4992605;28;20441;-52
2022/03/01 05:43:37;;;;;;;0.20;0.10;;;;;;;-3.02;99.05;101635.09;4994413;28;20449;-52
2022/03/01 05:46:07;;;;;;;0.20;0.10;;;;;;;-2.86;100.00;101635.03;4996344;28;20982;-52
2022/03/01 05:48:34;;;;;;;0.20;0.10;;;;;;;-2.88;99.46;101641.84;4996515;28;20894;-52
2022/03/01 05:51:02;;;;;;;0.30;0.20;;;;;;;-2.84;99.83;101637.69;4996053;28;20544;-52
2022/03/01 05:53:29;;;;;;;0.20;0.10;;;;;;;-2.77;99.14;101637.16;4996535;28;20458;-52
2022/03/01 05:55:56;;;;;;;0.20;0.10;;;;;;;-2.80;99.96;101640.50;4996239;28;20461;-52
2022/03/01 05:58:22;;;;;;;0.20;0.10;;;;;;;-2.73;99.75;101634.78;4996125;28;20485;-52
2022/03/01 06:00:49;;;;;;;0.20;0.10;;;;;;;-2.71;98.97;101640.06;4996152;28;20526;-52
2022/03/01 06:03:16;;;;;;;0.20;0.10;;;;;;;-2.89;99.34;101645.25;4996130;28;20453;-51
2022/03/01 06:05:42;;;;;;;0.20;0.10;;;;;;;-2.92;100.00;101639.03;4995832;28;20480;-52
2022/03/01 06:08:09;;;;;;;6.40;1.80;;;;;;;-2.94;99.82;101638.97;4996191;28;20507;-52
2022/03/01 06:10:36;;;;;;;0.20;0.20;;;;;;;-2.99;100.00;101637.88;4995861;28;20532;-52
2022/03/01 06:13:04;;;;;;;1.17;1.17;;;;;;;-3.08;100.00;101630.50;4996217;28;20453;-52
2022/03/01 06:15:30;;;;;;;0.20;0.10;;;;;;;-3.23;100.00;101641.88;4995791;28;20950;-51
2022/03/01 06:17:57;;;;;;;0.20;0.20;;;;;;;-3.12;100.00;101644.19;4995953;28;20457;-51
2022/03/01 06:20:24;;;;;;;0.20;0.10;;;;;;;-2.89;100.00;101646.97;4995601;28;20473;-51
2022/03/01 06:22:51;;;;;;;0.77;0.77;;;;;;;-2.81;100.00;101656.03;4996015;28;20454;-51
2022/03/01 06:25:20;;;;;;;0.20;0.10;;;;;;;-2.66;99.68;101653.25;4995873;28;20477;-52
2022/03/01 06:27:47;;;;;;;0.20;0.10;;;;;;;-2.66;99.13;101666.28;4995671;28;20453;-51
2022/03/01 06:30:15;;;;;;;0.20;0.10;;;;;;;-2.71;100.00;101673.88;4995476;28;20493;-51
2022/03/01 06:32:42;;;;;;;0.20;0.20;;;;;;;-2.88;100.00;101674.75;4995494;28;20476;-51
2022/03/01 06:35:10;;;;;;;0.20;0.10;;;;;;;-2.81;100.00;101688.16;4995581;28;20453;-52
2022/03/01 06:37:42;;;;;;;0.30;0.10;;;;;;;-2.74;100.00;101678.91;4995694;28;20450;-52
2022/03/01 06:40:12;;;;;;;0.20;0.10;;;;;;;-3.04;100.00;101680.94;4995416;28;20473;-52
2022/03/01 06:42:39;;;;;;;0.27;0.20;;;;;;;-3.00;100.00;101683.78;4995521;28;20536;-51
2022/03/01 06:45:07;;;;;;;0.20;0.10;;;;;;;-2.94;100.00;101683.19;4995233;28;20939;-51
2022/03/01 06:47:34;;;;;;;0.37;0.37;;;;;;;-2.75;100.00;101688.44;4995238;28;21008;-52
2022/03/01 06:50:00;;;;;;;0.20;0.10;;;;;;;-2.63;100.00;101695.94;4995172;28;20515;-52
2022/03/01 06:52:28;;;;;;;0.20;0.10;;;;;;;-2.50;100.00;101698.28;4995481;28;20523;-52
2022/03/01 06:54:59;;;;;;;0.20;0.10;;;;;;;-2.53;100.00;101692.94;4995189;28;20445;-51
2022/03/01 06:57:26;;;;;;;0.20;0.10;;;;;;;-2.45;100.00;101686.41;4995046;28;20512;-52
2022/03/01 06:59:53;;;;;;;0.20;0.10;;;;;;;-2.33;100.00;101678.25;4995434;28;20879;-52
2022/03/01 07:02:21;;;;;;;0.30;0.30;;;;;;;-2.43;100.00;101684.75;4995101;28;20486;-52
2022/03/01 07:04:48;;;;;;;0.20;0.20;;;;;;;-2.22;100.00;101687.44;4994899;28;20465;-51
2022/03/01 07:07:15;;;;;;;0.20;0.13;;;;;;;-2.15;100.00;101673.88;4994901;28;20477;-51
2022/03/01 07:09:41;;;;;;;1.17;1.07;;;;;;;-2.04;100.00;101679.56;4995019;28;20469;-52
2022/03/01 07:12:08;;;;;;;0.20;0.10;;;;;;;-1.93;100.00;101682.63;4994674;28;20516;-52
2022/03/01 07:14:35;;;;;;;0.20;0.10;;;;;;;-1.71;100.00;101687.09;4994656;28;20454;-52
2022/03/01 07:17:01;;;;;;;0.20;0.10;;;;;;;-1.66;100.00;101689.03;4994821;28;20454;-51
2022/03/01 07:19:28;;;;;;;0.20;0.10;;;;;;;-1.25;100.00;101692.53;4994669;28;20488;-51
2022/03/01 07:21:55;;;;;;;0.20;0.10;;;;;;;-1.43;100.00;101692.66;4994608;28;20954;-52
2022/03/01 07:24:21;;;;;;;0.20;0.10;;;;;;;-1.40;100.00;101691.88;4995115;28;20453;-52
2022/03/01 07:26:49;;;;;;;0.30;0.30;;;;;;;-1.29;99.51;101686.28;4994451;28;20577;-53
2022/03/01 07:29:16;;;;;;;0.30;0.20;;;;;;;-1.16;99.50;101699.84;4994469;28;20477;-52
2022/03/01 07:31:43;;;;;;;0.20;0.10;;;;;;;-1.09;98.50;101702.78;4994650;28;20521;-53
2022/03/01 07:34:09;;;;;;;0.20;0.10;;;;;;;-0.98;98.69;101691.06;4994480;28;20485;-51
2022/03/01 07:36:36;;;;;;;1.80;1.80;;;;;;;-0.76;97.33;101694.53;4994323;28;20455;-51
2022/03/01 07:39:03;;;;;;;0.67;0.63;;;;;;;-0.76;97.29;101703.25;4994376;28;20540;-52
2022/03/01 07:41:30;;;;;;;0.20;0.20;;;;;;;-0.51;97.02;101699.00;4994275;28;20512;-51
2022/03/01 07:43:56;;;;;;;0.20;0.10;;;;;;;-0.26;97.03;101700.84;4994539;28;20453;-51
2022/03/01 07:46:23;;;;;;;0.30;0.20;;;;;;;-0.32;96.77;101697.16;4994156;28;20454;-51
2022/03/01 07:48:50;;;;;;;0.20;0.10;;;;;;;-0.27;96.54;101701.66;4994117;28;20457;-51
2022/03/01 07:51:17;;;;;;;0.20;0.10;;;;;;;-0.23;96.53;101703.56;4994215;28;20540;-51
2022/03/01 07:53:43;;;;;;;0.20;0.20;;;;;;;-0.17;97.12;101714.22;4994025;28;20480;-51
2022/03/01 07:56:10;;;;;;;0.20;0.10;;;;;;;-0.14;97.47;101703.88;4993798;28;20477;-51
2022/03/01 07:58:36;;;;;;;0.20;0.20;;;;;;;0.03;97.24;101704.53;4994092;28;20493;-51
2022/03/01 08:01:04;;;;;;;0.20;0.10;;;;;;;0.09;96.61;101708.25;4994015;28;20485;-51
2022/03/01 08:03:31;;;;;;;0.20;0.10;;;;;;;0.24;96.68;101702.69;4993724;28;20488;-51
2022/03/01 08:05:58;;;;;;;2.53;2.33;;;;;;;0.27;95.63;101701.09;4993198;28;20504;-51
2022/03/01 08:08:24;;;;;;;2.50;1.03;;;;;;;0.42;95.54;101703.38;4993785;28;20875;-52
2022/03/01 08:10:52;;;;;;;0.30;0.30;;;;;;;0.58;94.95;101695.22;4993472;28;21062;-51
2022/03/01 08:13:38;;;;;;;0.20;0.10;;;;;;;0.48;95.82;101690.50;4993846;28;20457;-51
2022/03/01 08:16:06;;;;;;;0.20;0.13;;;;;;;0.63;94.52;101687.50;4993866;28;20528;-51
2022/03/01 08:18:33;;;;;;;0.20;0.10;;;;;;;0.65;94.17;101693.69;4993561;28;20545;-51
2022/03/01 08:20:59;;;;;;;0.20;0.10;;;;;;;0.83;93.51;101689.09;4993564;28;20466;-52
2022/03/01 08:23:27;;;;;;;0.20;0.20;;;;;;;1.07;91.56;101683.75;4993378;28;20457;-51
2022/03/01 08:25:56;;;;;;;0.20;0.10;;;;;;;1.05;91.41;101689.78;4993723;28;20557;-51
2022/03/01 08:28:23;;;;;;;0.20;0.10;;;;;;;1.06;88.68;101684.59;4993430;28;20573;-51
2022/03/01 08:30:51;;;;;;;1.37;1.13;;;;;;;1.20;87.53;101682.41;4993321;28;20489;-51
2022/03/01 08:33:20;;;;;;;0.20;0.10;;;;;;;1.39;86.73;101682.16;4992074;28;20464;-51
2022/03/01 08:35:46;;;;;;;0.20;0.10;;;;;;;1.62;87.66;101680.22;4982350;28;20449;-51
2022/03/01 08:38:13;;;;;;;0.20;0.10;;;;;;;1.78;86.54;101676.31;4993514;28;20461;-51
2022/03/01 08:40:40;;;;;;;0.20;0.10;;;;;;;1.91;86.23;101675.84;4993441;28;20469;-51
2022/03/01 08:43:10;;;;;;;0.40;0.40;;;;;;;2.07;84.34;101669.31;4993398;28;20457;-51
2022/03/01 08:45:38;;;;;;;0.20;0.13;;;;;;;2.42;83.95;101667.66;4993366;28;20489;-51
2022/03/01 08:48:05;;;;;;;0.20;0.20;;;;;;;2.56;82.76;101662.75;4993215;28;20508;-51
2022/03/01 08:50:32;;;;;;;0.20;0.10;;;;;;;2.74;77.96;101672.84;4992882;28;20888;-50
2022/03/01 08:53:12;;;;;;;0.20;0.10;;;;;;;2.87;78.72;101660.06;4993100;28;20829;-51
2022/03/01 08:55:39;;;;;;;0.20;0.10;;;;;;;2.89;74.66;101658.38;4993223;28;20512;-51
2022/03/01 08:58:06;;;;;;;0.20;0.10;;;;;;;2.98;75.20;101660.34;4993259;28;20802;-50
2022/03/01 09:00:33;;;;;;;2.23;2.23;;;;;;;3.22;75.67;101658.28;4993083;28;20524;-51
2022/03/01 09:03:00;;;;;;;0.20;0.10;;;;;;;3.33;73.65;101657.66;4992789;28;20508;-51
2022/03/01 09:05:27;;;;;;;0.20;0.10;;;;;;;3.32;73.20;101658.53;4993252;28;20450;-51
2022/03/01 09:07:54;;;;;;;1.53;1.53;;;;;;;3.41;71.53;101659.59;4993189;28;20453;-51
2022/03/01 09:10:24;;;;;;;1.13;1.13;;;;;;;3.49;71.68;101655.41;4992893;28;20474;-51
2022/03/01 09:12:56;;;;;;;0.20;0.10;;;;;;;3.33;70.89;101653.28;4992965;28;20584;-51
2022/03/01 09:15:25;;;;;;;0.20;0.10;;;;;;;3.27;72.37;101656.66;4992851;28;20872;-51
2022/03/01 09:17:52;;;;;;;0.20;0.10;;;;;;;3.28;70.98;101652.28;4994332;28;20454;-51
2022/03/01 09:20:19;;;;;;;0.20;0.10;;;;;;;3.61;72.02;101651.28;4997262;28;20501;-51
2022/03/01 09:22:45;;;;;;;0.20;0.10;;;;;;;3.53;69.91;101656.34;4997284;28;20865;-51
2022/03/01 09:25:12;;;;;;;0.20;0.10;;;;;;;3.61;70.06;101665.31;4997188;28;20449;-51
2022/03/01 09:27:39;;;;;;;0.20;0.17;;;;;;;3.92;70.11;101656.31;4996915;28;20449;-52
2022/03/01 09:30:06;;;;;;;0.20;0.10;;;;;;;3.63;69.10;101658.34;4996602;28;20473;-52
2022/03/01 09:32:33;;;;;;;0.20;0.10;;;;;;;3.69;69.87;101654.94;4996788;28;20539;-51
2022/03/01 09:35:00;;;;;;;0.20;0.10;;;;;;;3.84;69.32;101648.28;4996559;28;20450;-51
2022/03/01 09:37:26;;;;;;;0.30;0.20;;;;;;;3.83;68.78;101651.75;4996632;28;20452;-51
2022/03/01 09:39:53;;;;;;;0.20;0.20;;;;;;;3.95;69.38;101648.50;4996751;28;20896;-51
2022/03/01 09:42:20;;;;;;;0.20;0.20;;;;;;;3.91;70.08;101658.94;4996672;28;20962;-51
2022/03/01 09:44:47;;;;;;;0.20;0.13;;;;;;;3.59;68.79;101653.00;4996723;28;20453;-51
2022/03/01 09:47:14;;;;;;;0.20;0.10;;;;;;;3.83;69.04;101648.22;4996435;28;20983;-51
2022/03/01 09:49:40;;;;;;;0.20;0.10;;;;;;;3.78;68.91;101650.78;4996472;28;21002;-51
2022/03/01 09:52:15;;;;;;;0.20;0.10;;;;;;;3.80;69.28;101650.81;4996347;28;20504;-51
2022/03/01 09:54:42;;;;;;;0.20;0.10;;;;;;;4.20;68.33;101651.59;4996366;28;20500;-51
2022/03/01 09:57:12;;;;;;;0.20;0.10;;;;;;;4.23;68.44;101657.81;4996215;28;20449;-51
2022/03/01 09:59:39;;;;;;;0.30;0.20;;;;;;;4.42;67.39;101654.69;4996049;28;20519;-51
2022/03/01 10:02:07;;;;;;;0.20;0.10;;;;;;;4.59;66.99;101654.09;4996411;28;20442;-51
2022/03/01 10:04:49;;;;;;;0.20;0.20;;;;;;;4.82;66.61;101654.50;4996087;28;20950;-52
2022/03/01 10:07:24;;;;;;;0.20;0.17;;;;;;;4.29;66.74;101655.31;4994940;28;20519;-51
2022/03/01 10:09:52;;;;;;;0.20;0.10;;;;;;;4.47;67.31;101660.91;4996086;28;20519;-51
2022/03/01 10:12:27;;;;;;;0.20;0.20;;;;;;;4.78;66.50;101657.94;4996052;28;20497;-51
2022/03/01 10:14:59;;;;;;;1.03;1.03;;;;;;;4.96;65.21;101669.69;4996154;28;20515;-51
2022/03/01 10:17:35;;;;;;;0.23;0.17;;;;;;;4.90;65.20;101666.03;4995803;28;20453;-52
2022/03/01 10:20:11;;;;;;;0.40;0.37;;;;;;;4.99;64.72;101667.09;4995642;28;20527;-51
2022/03/01 10:22:48;;;;;;;0.20;0.20;;;;;;;5.00;64.73;101660.06;4995966;28;20445;-51
2022/03/01 10:25:18;;;;;;;0.20;0.20;;;;;;;4.80;64.15;101662.38;4995806;28;20499;-51
2022/03/01 10:27:46;;;;;;;0.20;0.10;;;;;;;5.12;63.47;101662.00;4995828;28;20457;-51
2022/03/01 10:30:25;;;;;;;0.20;0.10;;;;;;;5.06;63.29;101658.41;4995027;28;20476;-51
2022/03/01 10:33:12;;;;;;;0.20;0.17;;;;;;;5.18;63.52;101655.06;4995633;28;20489;-51
2022/03/01 10:35:55;;;;;;;0.30;0.20;;;;;;;5.34;63.76;101656.19;4994243;28;20512;-51
2022/03/01 10:38:24;;;;;;;0.20;0.10;;;;;;;5.60;62.79;101654.81;4995493;28;20508;-53
2022/03/01 10:40:59;;;;;;;0.20;0.20;;;;;;;5.48;63.67;101654.66;4995267;28;20585;-51
2022/03/01 10:43:28;;;;;;;0.20;0.10;;;;;;;5.65;62.69;101655.78;4995246;28;20810;-51
2022/03/01 10:45:56;;;;;;;0.20;0.10;;;;;;;5.19;62.38;101656.84;4995535;28;20460;-52
2022/03/01 10:48:29;;;;;;;0.20;0.10;;;;;;;5.33;61.06;101650.03;4995178;28;20453;-52
2022/03/01 10:51:10;;;;;;;0.20;0.10;;;;;;;5.18;61.58;101648.91;4995588;28;20477;-53
2022/03/01 10:53:42;;;;;;;0.20;0.20;;;;;;;5.70;62.61;101649.66;4995473;28;20441;-54
2022/03/01 10:56:11;;;;;;;0.20;0.20;;;;;;;5.72;60.78;101653.22;4995035;28;20566;-54
2022/03/01 10:58:41;;;;;;;1.53;1.43;;;;;;;5.51;60.43;101648.53;4995108;28;20496;-54
2022/03/01 11:01:12;;;;;;;0.20;0.20;;;;;;;5.77;59.99;101654.19;4993882;28;20825;-54
2022/03/01 11:03:39;;;;;;;0.20;0.10;;;;;;;5.52;58.88;101643.28;4994850;28;20452;-54
2022/03/01 11:06:10;;;;;;;0.83;0.83;;;;;;;5.93;59.92;101633.31;4994944;28;20454;-54
2022/03/01 11:08:40;;;;;;;0.20;0.10;;;;;;;5.93;58.48;101643.88;4995045;28;20497;-54
2022/03/01 11:11:10;;;;;;;0.87;0.87;;;;;;;5.91;56.60;101642.97;4994788;28;20951;-54
2022/03/01 11:13:42;;;;;;;0.20;0.10;;;;;;;6.30;57.28;101646.00;4994772;28;20832;-54
2022/03/01 11:16:36;;;;;;;0.20;0.20;;;;;;;6.28;56.47;101635.44;4994844;28;20448;-54
2022/03/01 11:19:38;;;;;;;0.30;0.20;;;;;;;6.18;57.70;101633.59;4994630;28;20971;-54
2022/03/01 11:22:15;;;;;;;0.20;0.10;;;;;;;5.99;57.56;101627.19;4991595;28;20480;-53
2022/03/01 11:24:42;;;;;;;0.30;0.10;;;;;;;6.43;55.81;101610.94;4994668;28;20492;-53
2022/03/01 11:27:09;;;;;;;0.20;0.20;;;;;;;6.38;55.65;101615.31;4994664;28;20454;-54
2022/03/01 11:29:40;;;;;;;0.30;0.20;;;;;;;6.43;56.65;101616.22;4994544;28;20535;-54